Terminal Aerodrome Forecast
Issued by NWS Cleveland, OH

Home | Current Version | Previous Version | Text Only | Print | Product List | Glossary Off
Versions: 1 2 3 4 5 6 7 8 9 10 11 12 13 14 15 16 17 18 19

000
FTUS41 KCLE 192300
TAFMFD
TAF
KMFD 192340Z 2000/2024 12020G30KT 4SM -SHRA BR OVC012 WS010/14050KT
     FM200100 14025G35KT 4SM -SHRA BR OVC007 WS010/14050KT
     FM200400 17020G30KT 4SM -SHRA BR OVC015
     FM201000 20015G25KT P6SM OVC025
     FM201300 22015G25KT P6SM SCT025 OVC035=

USA.gov is the U.S. government's official web portal to all federal, state and local government web resources and services.